Time;durP1;ratioP1;P1;durP2;ratioP2;P2;SDS_P1;SDS_P2;PMS_P1;PMS_P2;Temp;Humidity;BMP_temperature;BMP_pressure;BME280_temperature;BME280_humidity;BME280_pressure;Samples;Min_cycle;Max_cycle;Signal;HPM_P1;HPM_P2
2022/07/31 00:00:35;;;;;;;0.45;0.40;;;20.70;61.90;;;;;;4815520;29;20529;-82
2022/07/31 00:03:00;;;;;;;0.55;0.40;;;20.70;62.00;;;;;;4799730;29;20051;-81
2022/07/31 00:05:26;;;;;;;0.47;0.47;;;20.60;62.10;;;;;;4818161;29;20042;-81
2022/07/31 00:07:53;;;;;;;0.40;0.40;;;20.70;62.20;;;;;;4818655;29;20522;-82
2022/07/31 00:10:19;;;;;;;0.40;0.40;;;20.60;62.30;;;;;;4815319;29;20121;-80
2022/07/31 00:12:45;;;;;;;0.73;0.52;;;20.60;62.40;;;;;;4814246;29;20379;-81
2022/07/31 00:15:12;;;;;;;0.50;0.50;;;20.60;62.50;;;;;;4800085;29;20091;-81
2022/07/31 00:17:38;;;;;;;0.50;0.50;;;20.50;62.60;;;;;;4815370;29;20080;-82
2022/07/31 00:20:05;;;;;;;0.40;0.40;;;20.50;62.70;;;;;;4814416;29;20039;-82
2022/07/31 00:22:31;;;;;;;1.00;0.40;;;20.50;62.90;;;;;;4816471;29;20077;-82
2022/07/31 00:24:57;;;;;;;0.40;0.40;;;20.50;62.90;;;;;;4815587;29;20043;-82
2022/07/31 00:27:23;;;;;;;0.43;0.43;;;20.40;63.00;;;;;;4816048;29;20047;-81
2022/07/31 00:29:49;;;;;;;0.82;0.50;;;20.50;63.10;;;;;;4820719;29;20118;-81
2022/07/31 00:32:15;;;;;;;0.38;0.38;;;20.40;63.10;;;;;;4819016;29;20043;-81
2022/07/31 00:34:41;;;;;;;0.30;0.30;;;20.40;63.10;;;;;;4822048;29;20122;-81
2022/07/31 00:37:07;;;;;;;0.50;0.50;;;20.40;63.10;;;;;;4820333;29;20068;-81
2022/07/31 00:39:33;;;;;;;0.40;0.40;;;20.30;63.10;;;;;;4820226;29;20110;-82
2022/07/31 00:41:59;;;;;;;0.40;0.40;;;20.40;63.10;;;;;;4835303;29;20379;-81
2022/07/31 00:44:24;;;;;;;0.38;0.38;;;20.30;63.10;;;;;;4806507;29;20045;-81
2022/07/31 00:46:50;;;;;;;0.47;0.30;;;20.40;63.20;;;;;;4819597;29;20039;-81
2022/07/31 00:49:16;;;;;;;0.30;0.30;;;20.30;63.20;;;;;;4803066;29;20049;-81
2022/07/31 00:51:42;;;;;;;0.40;0.40;;;20.30;63.30;;;;;;4816700;29;20065;-81
2022/07/31 00:54:09;;;;;;;0.40;0.40;;;20.30;63.40;;;;;;4799825;29;20059;-81
2022/07/31 00:56:35;;;;;;;0.80;0.65;;;20.30;63.40;;;;;;4798913;29;20043;-81
2022/07/31 00:59:01;;;;;;;0.70;0.40;;;20.30;63.50;;;;;;4800873;29;20043;-81
2022/07/31 01:01:28;;;;;;;0.40;0.40;;;20.20;63.60;;;;;;4801914;29;20153;-81
2022/07/31 01:03:53;;;;;;;0.40;0.35;;;20.20;63.70;;;;;;4816822;29;20062;-81
2022/07/31 01:06:19;;;;;;;0.30;0.30;;;20.20;63.70;;;;;;4814750;29;20046;-81
2022/07/31 01:08:45;;;;;;;0.40;0.40;;;20.10;63.80;;;;;;4829539;29;20049;-81
2022/07/31 01:11:18;;;;;;;1.17;0.40;;;20.00;64.10;;;;;;4797802;29;20482;-81
2022/07/31 01:13:53;;;;;;;0.40;0.40;;;19.90;65.00;;;;;;4818907;29;20183;-81
2022/07/31 01:16:23;;;;;;;0.40;0.40;;;20.00;64.40;;;;;;4834942;29;20050;-81
2022/07/31 01:18:51;;;;;;;0.63;0.45;;;19.90;64.30;;;;;;4832014;29;20046;-81
2022/07/31 01:21:23;;;;;;;0.50;0.50;;;20.00;64.40;;;;;;4831793;29;20050;-81
2022/07/31 01:24:13;;;;;;;0.35;0.35;;;19.90;64.30;;;;;;4832096;29;20532;-81
2022/07/31 01:27:00;;;;;;;0.35;0.35;;;20.10;64.50;;;;;;4815935;29;20042;-81
2022/07/31 01:29:30;;;;;;;0.40;0.40;;;20.00;64.50;;;;;;4829159;29;20030;-82
2022/07/31 01:32:20;;;;;;;0.40;0.40;;;19.90;64.50;;;;;;4829062;29;20110;-81
2022/07/31 01:35:01;;;;;;;0.73;0.43;;;19.90;64.60;;;;;;4816269;29;20053;-82
2022/07/31 01:37:32;;;;;;;0.40;0.40;;;19.80;64.70;;;;;;4798818;29;20393;-81
2022/07/31 01:40:04;;;;;;;0.70;0.68;;;19.70;64.70;;;;;;4814517;29;20066;-81
2022/07/31 01:42:33;;;;;;;0.40;0.40;;;19.70;64.80;;;;;;4814931;29;20074;-81
2022/07/31 01:45:00;;;;;;;0.40;0.40;;;19.70;64.80;;;;;;4799474;29;20081;-81
2022/07/31 01:47:28;;;;;;;0.30;0.30;;;19.70;64.90;;;;;;4814090;29;20113;-81
2022/07/31 01:49:57;;;;;;;0.40;0.40;;;19.70;65.00;;;;;;4813449;29;20039;-82
2022/07/31 01:52:27;;;;;;;0.50;0.50;;;19.70;65.00;;;;;;4799139;29;20099;-82
2022/07/31 01:54:54;;;;;;;0.50;0.50;;;19.60;65.00;;;;;;4829317;29;20050;-81
2022/07/31 01:57:23;;;;;;;0.60;0.60;;;19.60;65.10;;;;;;4813909;29;20283;-81
2022/07/31 01:59:52;;;;;;;0.32;0.32;;;19.60;65.10;;;;;;4796242;29;20057;-82
2022/07/31 02:02:19;;;;;;;0.30;0.30;;;19.60;65.20;;;;;;4810879;29;20487;-82
2022/07/31 02:04:46;;;;;;;0.32;0.32;;;19.60;65.20;;;;;;4795127;29;20055;-82
2022/07/31 02:07:14;;;;;;;0.40;0.40;;;19.60;65.20;;;;;;4809220;29;20077;-81
2022/07/31 02:09:43;;;;;;;0.40;0.40;;;19.60;65.30;;;;;;4794220;29;20057;-81
2022/07/31 02:12:10;;;;;;;0.30;0.30;;;19.50;65.30;;;;;;4809060;29;20047;-81
2022/07/31 02:14:39;;;;;;;0.30;0.30;;;19.60;65.40;;;;;;4808557;29;20043;-81
2022/07/31 02:17:07;;;;;;;0.40;0.40;;;19.60;65.50;;;;;;4805550;29;20059;-82
2022/07/31 02:19:35;;;;;;;0.50;0.50;;;19.50;65.40;;;;;;4791315;29;20070;-82
2022/07/31 02:22:00;;;;;;;0.40;0.40;;;19.50;65.50;;;;;;4805612;29;20125;-81
2022/07/31 02:24:26;;;;;;;0.30;0.30;;;19.50;65.60;;;;;;4791233;29;20202;-81
2022/07/31 02:26:53;;;;;;;0.40;0.40;;;19.60;65.80;;;;;;4808911;29;20447;-81
2022/07/31 02:29:21;;;;;;;0.45;0.40;;;19.50;65.80;;;;;;4808751;29;20094;-82
2022/07/31 02:31:50;;;;;;;0.50;0.50;;;19.50;65.90;;;;;;4825586;29;20063;-81
2022/07/31 02:34:17;;;;;;;0.30;0.30;;;19.50;66.00;;;;;;4809202;29;20165;-81
2022/07/31 02:36:45;;;;;;;0.63;0.63;;;19.40;66.10;;;;;;4823364;29;20042;-82
2022/07/31 02:39:13;;;;;;;0.32;0.32;;;19.40;66.20;;;;;;4808787;29;20046;-81
2022/07/31 02:41:40;;;;;;;0.40;0.40;;;19.40;66.20;;;;;;4808691;29;20397;-81
2022/07/31 02:44:07;;;;;;;0.40;0.40;;;19.40;66.20;;;;;;4792963;29;20133;-82
2022/07/31 02:46:34;;;;;;;0.30;0.30;;;19.40;66.40;;;;;;4808556;29;20050;-81
2022/07/31 02:49:01;;;;;;;0.50;0.45;;;19.40;66.50;;;;;;4794566;29;20103;-81
2022/07/31 02:51:28;;;;;;;0.40;0.40;;;19.30;66.60;;;;;;4826093;29;20106;-81
2022/07/31 02:53:54;;;;;;;0.60;0.40;;;19.30;66.60;;;;;;4795371;29;20059;-81
2022/07/31 02:56:22;;;;;;;0.50;0.50;;;19.30;66.70;;;;;;4809824;29;20553;-81
2022/07/31 02:58:48;;;;;;;0.30;0.30;;;19.30;66.70;;;;;;4809395;29;20481;-81
2022/07/31 03:01:14;;;;;;;0.43;0.43;;;19.30;66.80;;;;;;4827769;29;20107;-81
2022/07/31 03:03:40;;;;;;;0.45;0.45;;;19.10;66.70;;;;;;4799358;29;20066;-81
2022/07/31 03:06:05;;;;;;;0.43;0.43;;;19.30;66.80;;;;;;4814498;29;20129;-81
2022/07/31 03:08:31;;;;;;;1.02;0.60;;;19.30;66.90;;;;;;4799371;29;20026;-81
2022/07/31 03:10:57;;;;;;;0.50;0.50;;;19.30;66.90;;;;;;4830585;29;20435;-81
2022/07/31 03:13:25;;;;;;;0.32;0.25;;;19.30;67.00;;;;;;4830489;29;20116;-81
2022/07/31 03:15:53;;;;;;;0.50;0.50;;;19.30;67.00;;;;;;4812119;29;20042;-81
2022/07/31 03:18:20;;;;;;;0.70;0.63;;;19.30;67.10;;;;;;4812949;29;20509;-81
2022/07/31 03:20:50;;;;;;;0.80;0.50;;;19.20;67.20;;;;;;4812944;29;20038;-81
2022/07/31 03:23:18;;;;;;;0.50;0.50;;;19.20;67.20;;;;;;4828454;29;20047;-81
2022/07/31 03:25:45;;;;;;;0.45;0.45;;;19.20;67.30;;;;;;4813915;29;20035;-81
2022/07/31 03:28:11;;;;;;;0.40;0.40;;;19.20;67.30;;;;;;4811670;29;20053;-81
2022/07/31 03:30:37;;;;;;;0.30;0.30;;;19.20;67.40;;;;;;4809384;29;20474;-81
2022/07/31 03:33:02;;;;;;;0.40;0.40;;;19.20;67.60;;;;;;4810833;29;20054;-82
2022/07/31 03:35:29;;;;;;;0.40;0.40;;;19.20;67.70;;;;;;4811821;29;20046;-81
2022/07/31 03:37:55;;;;;;;0.40;0.40;;;19.10;67.70;;;;;;4827797;29;20092;-81
2022/07/31 03:40:21;;;;;;;0.82;0.63;;;19.20;67.80;;;;;;4796915;29;20045;-81
2022/07/31 03:42:48;;;;;;;0.32;0.32;;;19.20;67.80;;;;;;4828336;29;20119;-81
2022/07/31 03:45:15;;;;;;;0.85;0.57;;;19.20;67.90;;;;;;4781724;29;20078;-82
2022/07/31 03:47:41;;;;;;;0.57;0.50;;;19.20;67.90;;;;;;4811576;29;20590;-82
2022/07/31 03:50:08;;;;;;;0.47;0.47;;;19.10;67.90;;;;;;4828183;29;20039;-82
2022/07/31 03:52:34;;;;;;;0.73;0.68;;;19.10;67.90;;;;;;4828351;29;20054;-82
2022/07/31 03:55:00;;;;;;;0.85;0.70;;;19.20;68.00;;;;;;4811762;29;20050;-81
2022/07/31 03:57:28;;;;;;;0.80;0.70;;;19.10;67.90;;;;;;4828202;29;20498;-82
2022/07/31 03:59:56;;;;;;;0.60;0.60;;;19.20;68.00;;;;;;4828237;29;20034;-81
2022/07/31 04:02:25;;;;;;;0.82;0.60;;;19.20;68.00;;;;;;4828146;29;20046;-81
2022/07/31 04:04:51;;;;;;;0.60;0.60;;;19.20;68.00;;;;;;4782742;29;20039;-81
2022/07/31 04:07:18;;;;;;;0.63;0.63;;;19.20;68.00;;;;;;4812105;29;20085;-81
2022/07/31 04:09:44;;;;;;;0.63;0.63;;;19.30;68.10;;;;;;4827620;29;20121;-81
2022/07/31 04:12:09;;;;;;;0.60;0.60;;;19.10;68.00;;;;;;4810342;29;20072;-81
2022/07/31 04:14:35;;;;;;;0.80;0.68;;;19.10;68.10;;;;;;4825452;29;20038;-81
2022/07/31 04:17:01;;;;;;;0.60;0.60;;;19.20;68.10;;;;;;4808292;29;20705;-81
2022/07/31 04:19:29;;;;;;;1.00;0.90;;;19.20;68.10;;;;;;4808988;29;20471;-81
2022/07/31 04:21:56;;;;;;;0.70;0.63;;;19.20;68.20;;;;;;4825443;29;20053;-81
2022/07/31 04:24:22;;;;;;;0.90;0.80;;;19.10;68.30;;;;;;4793375;29;20057;-81
2022/07/31 04:26:49;;;;;;;0.60;0.60;;;19.20;68.30;;;;;;4778214;29;20465;-81
2022/07/31 04:29:15;;;;;;;0.77;0.75;;;19.10;68.40;;;;;;4807373;29;20051;-81
2022/07/31 04:31:41;;;;;;;0.60;0.60;;;19.20;68.40;;;;;;4808517;29;20047;-82
2022/07/31 04:34:06;;;;;;;0.68;0.68;;;19.10;68.40;;;;;;4808357;29;20119;-81
2022/07/31 04:36:32;;;;;;;0.60;0.60;;;19.20;68.50;;;;;;4808689;29;20053;-81
2022/07/31 04:39:00;;;;;;;0.63;0.60;;;19.10;68.40;;;;;;4806369;29;20126;-81
2022/07/31 04:41:27;;;;;;;0.95;0.80;;;19.20;68.50;;;;;;4790548;29;20099;-81
2022/07/31 04:43:53;;;;;;;0.68;0.68;;;19.20;68.40;;;;;;4805553;29;20482;-81
2022/07/31 04:46:20;;;;;;;0.50;0.50;;;19.20;68.50;;;;;;4805098;29;20038;-81
2022/07/31 04:48:45;;;;;;;1.77;0.68;;;19.20;68.50;;;;;;4806285;29;20046;-81
2022/07/31 04:51:20;;;;;;;0.63;0.63;;;19.20;68.60;;;;;;4775863;29;20031;-81
2022/07/31 04:53:46;;;;;;;0.57;0.57;;;19.20;68.60;;;;;;4790130;29;20054;-81
2022/07/31 04:59:01;;;;;;;0.85;0.60;;;19.30;69.30;;;;;;4825637;29;20042;-81
2022/07/31 05:01:27;;;;;;;0.55;0.55;;;19.30;68.60;;;;;;4792982;29;20407;-81
2022/07/31 05:03:53;;;;;;;1.67;0.70;;;19.30;68.70;;;;;;4791694;29;20047;-81
2022/07/31 05:06:19;;;;;;;0.70;0.70;;;19.30;68.70;;;;;;4805619;29;20039;-81
2022/07/31 05:08:45;;;;;;;1.17;0.70;;;19.30;68.70;;;;;;4806373;29;20039;-81
2022/07/31 05:13:52;;;;;;;0.65;0.65;;;19.30;68.70;;;;;;4824275;29;20418;-81
2022/07/31 05:16:18;;;;;;;0.50;0.50;;;19.30;68.70;;;;;;4807825;29;20045;-81
2022/07/31 05:18:45;;;;;;;0.52;0.50;;;19.40;68.80;;;;;;4793390;29;20095;-81
2022/07/31 05:21:12;;;;;;;0.77;0.55;;;19.40;68.80;;;;;;4807913;29;20043;-81
2022/07/31 05:23:39;;;;;;;0.70;0.70;;;19.40;68.80;;;;;;4793129;29;20065;-81
2022/07/31 05:26:05;;;;;;;0.70;0.70;;;19.50;68.80;;;;;;4807590;29;20114;-81
2022/07/31 05:28:31;;;;;;;0.70;0.70;;;19.50;68.70;;;;;;4808484;29;20039;-81
2022/07/31 05:30:57;;;;;;;1.67;0.88;;;19.60;68.80;;;;;;4808278;29;20039;-81
2022/07/31 05:33:23;;;;;;;1.13;0.68;;;19.70;68.70;;;;;;4792371;29;20035;-81
2022/07/31 05:35:49;;;;;;;0.80;0.70;;;19.70;68.60;;;;;;4789187;29;20054;-81
2022/07/31 05:38:14;;;;;;;1.02;0.82;;;19.70;68.60;;;;;;4792203;29;20054;-81
2022/07/31 05:40:41;;;;;;;0.63;0.63;;;19.90;68.60;;;;;;4824555;29;20042;-81
2022/07/31 05:43:07;;;;;;;0.95;0.88;;;19.90;68.50;;;;;;4808357;29;20054;-81
2022/07/31 05:45:33;;;;;;;0.98;0.70;;;20.00;68.50;;;;;;4808002;29;20041;-81
2022/07/31 05:47:59;;;;;;;0.82;0.82;;;20.00;68.40;;;;;;4807642;29;20050;-81
2022/07/31 05:50:24;;;;;;;1.17;0.75;;;20.10;68.50;;;;;;4823506;29;20094;-81
2022/07/31 05:52:50;;;;;;;0.77;0.77;;;20.00;68.60;;;;;;4807104;29;20039;-81
2022/07/31 05:55:16;;;;;;;0.73;0.63;;;20.00;68.60;;;;;;4807552;29;20042;-81
2022/07/31 05:57:41;;;;;;;1.08;0.88;;;20.00;68.70;;;;;;4823603;29;20045;-81
2022/07/31 06:00:08;;;;;;;1.08;0.93;;;20.00;68.80;;;;;;4777698;29;20048;-81
2022/07/31 06:02:34;;;;;;;1.50;1.00;;;20.00;68.90;;;;;;4792940;29;20046;-81
2022/07/31 06:05:00;;;;;;;0.77;0.77;;;19.90;68.90;;;;;;4806885;29;20131;-81
2022/07/31 06:07:26;;;;;;;1.23;0.95;;;20.00;69.00;;;;;;4792662;29;20489;-81
2022/07/31 06:09:52;;;;;;;0.88;0.88;;;19.90;69.10;;;;;;4809087;29;20085;-82
2022/07/31 06:12:18;;;;;;;1.15;1.00;;;20.00;69.20;;;;;;4792789;29;20424;-81
2022/07/31 06:14:45;;;;;;;0.98;0.85;;;19.90;69.40;;;;;;4824437;29;20811;-81
2022/07/31 06:17:11;;;;;;;1.40;0.88;;;19.90;69.40;;;;;;4792958;29;20046;-81
2022/07/31 06:19:37;;;;;;;1.55;1.20;;;19.80;69.50;;;;;;4792386;29;20042;-81
2022/07/31 06:22:04;;;;;;;1.58;1.10;;;19.90;70.20;;;;;;4808742;29;20046;-82
2022/07/31 06:24:31;;;;;;;1.27;1.10;;;19.90;69.70;;;;;;4809548;29;20054;-81
2022/07/31 06:27:01;;;;;;;1.58;1.10;;;19.90;69.70;;;;;;4823919;29;20093;-81
2022/07/31 06:29:27;;;;;;;1.25;1.05;;;19.80;69.70;;;;;;4807682;29;20042;-81
2022/07/31 06:31:53;;;;;;;1.48;1.17;;;19.80;69.70;;;;;;4824374;29;20130;-81
2022/07/31 06:34:19;;;;;;;3.30;1.23;;;19.80;69.80;;;;;;4824059;29;20050;-81
2022/07/31 06:36:45;;;;;;;1.80;1.35;;;19.90;69.80;;;;;;4823334;29;20051;-80
2022/07/31 06:39:11;;;;;;;1.52;1.15;;;19.80;69.80;;;;;;4807829;29;20111;-81
2022/07/31 06:41:45;;;;;;;1.52;1.20;;;19.80;69.90;;;;;;4789552;29;20039;-81
2022/07/31 06:44:13;;;;;;;1.75;1.30;;;19.90;70.00;;;;;;4806462;29;20486;-81
2022/07/31 06:46:38;;;;;;;1.75;1.30;;;19.80;69.90;;;;;;4805001;29;20501;-80
2022/07/31 06:49:04;;;;;;;2.13;1.50;;;19.90;70.00;;;;;;4805029;29;20043;-81
2022/07/31 06:51:30;;;;;;;1.15;1.05;;;19.90;70.10;;;;;;4805239;29;20051;-82
2022/07/31 06:53:57;;;;;;;1.75;1.30;;;19.90;70.10;;;;;;4805437;29;20042;-80
2022/07/31 06:56:22;;;;;;;1.85;1.40;;;19.90;70.10;;;;;;4788339;29;20046;-81
2022/07/31 06:58:48;;;;;;;1.10;1.00;;;19.90;70.00;;;;;;4789172;29;20088;-82
2022/07/31 07:01:14;;;;;;;1.35;1.20;;;20.00;70.10;;;;;;4807801;29;20039;-81
2022/07/31 07:03:40;;;;;;;2.20;1.52;;;19.90;70.00;;;;;;4823791;29;20569;-81
2022/07/31 07:06:05;;;;;;;2.28;1.50;;;20.00;70.00;;;;;;4827274;29;20042;-82
2022/07/31 07:08:31;;;;;;;1.75;1.23;;;19.90;70.10;;;;;;4824465;29;20146;-81
2022/07/31 07:10:57;;;;;;;2.00;1.40;;;19.90;70.20;;;;;;4793527;29;20054;-82
2022/07/31 07:13:25;;;;;;;1.60;1.33;;;19.80;70.20;;;;;;4825652;29;20502;-79
2022/07/31 07:15:51;;;;;;;2.13;1.30;;;20.00;70.30;;;;;;4778790;29;20054;-81
2022/07/31 07:18:17;;;;;;;1.45;1.25;;;20.00;70.30;;;;;;4791290;29;20398;-81
2022/07/31 07:20:42;;;;;;;2.40;1.55;;;19.90;70.30;;;;;;4805426;29;20105;-82
2022/07/31 07:23:09;;;;;;;1.92;1.40;;;19.90;70.30;;;;;;4806758;29;20050;-79
2022/07/31 07:25:35;;;;;;;1.40;1.00;;;19.90;70.40;;;;;;4805470;29;20043;-80
2022/07/31 07:28:00;;;;;;;1.30;1.20;;;20.00;70.50;;;;;;4789203;29;20594;-81
2022/07/31 07:30:27;;;;;;;1.40;1.15;;;19.90;70.40;;;;;;4806766;29;20034;-81
2022/07/31 07:32:53;;;;;;;2.25;1.48;;;20.00;70.50;;;;;;4792272;29;20129;-81
2022/07/31 07:35:21;;;;;;;1.60;1.33;;;20.00;70.60;;;;;;4814823;29;20042;-79
2022/07/31 07:37:47;;;;;;;0.85;0.80;;;20.00;70.70;;;;;;4813276;29;20071;-80
2022/07/31 07:40:13;;;;;;;2.50;1.40;;;20.00;70.70;;;;;;4815660;29;20076;-82
2022/07/31 07:42:40;;;;;;;0.90;0.90;;;20.10;70.70;;;;;;4828530;29;20498;-82
2022/07/31 07:45:06;;;;;;;1.50;1.10;;;20.20;70.60;;;;;;4814448;29;20038;-82
2022/07/31 07:47:32;;;;;;;1.98;1.13;;;20.30;70.40;;;;;;4832851;29;20026;-82
2022/07/31 07:49:57;;;;;;;1.70;1.27;;;20.30;70.20;;;;;;4818286;29;20395;-81
2022/07/31 07:52:23;;;;;;;2.17;1.15;;;20.40;70.20;;;;;;4832666;29;20393;-82
2022/07/31 07:54:49;;;;;;;2.13;1.25;;;20.40;70.30;;;;;;4812215;29;20038;-82
2022/07/31 07:57:17;;;;;;;1.80;1.08;;;20.30;70.30;;;;;;4800613;29;20048;-82
2022/07/31 07:59:43;;;;;;;1.20;0.90;;;20.30;70.40;;;;;;4828131;29;20042;-80
2022/07/31 08:02:11;;;;;;;1.20;1.10;;;20.40;70.60;;;;;;4797221;29;20083;-81
2022/07/31 08:04:37;;;;;;;1.90;1.10;;;20.40;70.70;;;;;;4798650;29;20039;-80
2022/07/31 08:07:03;;;;;;;1.95;1.30;;;20.40;70.70;;;;;;4827091;29;20505;-79
2022/07/31 08:09:29;;;;;;;2.35;1.25;;;20.40;70.70;;;;;;4793792;29;20043;-79
2022/07/31 08:11:55;;;;;;;2.25;1.40;;;20.40;70.80;;;;;;4807596;29;20042;-80
2022/07/31 08:14:21;;;;;;;2.60;1.45;;;20.40;70.90;;;;;;4806641;29;20047;-80
2022/07/31 08:16:46;;;;;;;3.58;1.80;;;20.40;71.00;;;;;;4807104;29;20047;-79
2022/07/31 08:19:12;;;;;;;2.40;1.60;;;20.40;71.00;;;;;;4808395;29;20047;-79
2022/07/31 08:21:38;;;;;;;1.20;1.10;;;20.40;71.10;;;;;;4808259;29;20502;-80
2022/07/31 08:24:05;;;;;;;1.90;1.27;;;20.50;71.10;;;;;;4808429;29;20081;-79
2022/07/31 08:27:22;;;;;;;1.70;1.05;;;20.50;71.00;;;;;;4806718;29;20091;-81
2022/07/31 08:29:17;;;;;;;1.50;1.08;;;20.50;71.00;;;;;;4814416;29;20041;-79
2022/07/31 08:31:43;;;;;;;3.40;1.17;;;20.70;71.00;;;;;;4821027;29;20075;-80
2022/07/31 08:34:09;;;;;;;1.50;1.15;;;20.70;70.90;;;;;;4828609;29;20047;-81
2022/07/31 08:36:34;;;;;;;2.55;1.10;;;20.80;70.80;;;;;;4813673;29;20525;-80
2022/07/31 08:39:02;;;;;;;2.28;1.50;;;20.90;70.70;;;;;;4817415;29;20050;-80
2022/07/31 08:41:28;;;;;;;1.35;1.23;;;21.00;70.50;;;;;;4839449;29;20031;-80
2022/07/31 08:43:55;;;;;;;2.33;1.42;;;21.00;70.40;;;;;;4798793;29;20042;-80
2022/07/31 08:46:21;;;;;;;3.25;1.77;;;21.10;70.30;;;;;;4825187;29;20030;-79
2022/07/31 08:48:52;;;;;;;1.40;1.10;;;21.20;70.20;;;;;;4799361;29;20099;-80
2022/07/31 08:51:18;;;;;;;2.47;1.45;;;21.30;70.30;;;;;;4797404;29;20034;-79
2022/07/31 08:53:48;;;;;;;1.83;1.30;;;21.40;70.10;;;;;;4830954;29;20043;-80
2022/07/31 08:56:14;;;;;;;1.98;1.27;;;21.60;69.90;;;;;;4798990;29;20054;-80
2022/07/31 08:58:40;;;;;;;2.75;1.40;;;21.70;69.60;;;;;;4807744;29;20502;-80
2022/07/31 09:01:07;;;;;;;2.15;1.38;;;21.80;69.30;;;;;;4806697;29;20039;-80
2022/07/31 09:03:34;;;;;;;1.67;1.30;;;22.00;69.30;;;;;;4806274;29;20054;-81
2022/07/31 09:06:00;;;;;;;2.05;1.55;;;22.10;69.20;;;;;;4791109;29;20402;-80
2022/07/31 09:08:26;;;;;;;1.20;1.10;;;22.20;69.10;;;;;;4806959;29;20047;-80
2022/07/31 09:11:07;;;;;;;1.83;1.45;;;22.20;69.10;;;;;;4807431;29;20122;-80
2022/07/31 09:13:33;;;;;;;1.30;1.00;;;22.30;69.00;;;;;;4809796;29;20047;-80
2022/07/31 09:23:23;;;;;;;1.95;1.30;;;22.50;69.30;;;;;;4726740;30;20093;-88
2022/07/31 09:26:26;;;;;;;2.13;1.30;;;22.50;69.00;;;;;;4661442;30;20054;-83
2022/07/31 09:28:52;;;;;;;1.50;1.25;;;22.50;69.10;;;;;;4612468;31;20627;-81
2022/07/31 09:31:21;;;;;;;2.05;1.20;;;22.30;69.20;;;;;;4613734;31;20063;-79
2022/07/31 09:33:47;;;;;;;1.52;1.15;;;22.30;69.50;;;;;;4599179;31;20058;-82
2022/07/31 09:36:13;;;;;;;1.80;1.30;;;22.40;69.70;;;;;;4614491;31;20502;-79
2022/07/31 09:38:41;;;;;;;2.28;1.40;;;22.40;69.70;;;;;;4631805;31;20531;-81
2022/07/31 09:41:50;;;;;;;1.95;1.20;;;22.40;69.70;;;;;;4631259;31;20130;-85
2022/07/31 09:44:18;;;;;;;2.00;1.33;;;22.50;69.70;;;;;;4628987;30;20063;-82
2022/07/31 09:46:47;;;;;;;3.38;1.50;;;22.50;69.80;;;;;;4648436;30;20138;-81
2022/07/31 09:49:44;;;;;;;2.10;1.42;;;22.50;69.90;;;;;;4666691;30;20055;-82
2022/07/31 09:52:20;;;;;;;1.33;1.10;;;22.40;70.10;;;;;;4715143;30;20049;-84
2022/07/31 09:55:02;;;;;;;1.20;1.10;;;22.40;70.30;;;;;;4735856;30;20155;-81
2022/07/31 09:57:28;;;;;;;2.05;1.35;;;22.30;70.50;;;;;;4747108;30;20052;-80
2022/07/31 09:59:55;;;;;;;2.20;1.25;;;22.30;70.80;;;;;;4756226;30;20132;-79
2022/07/31 10:02:27;;;;;;;1.10;1.00;;;22.10;70.80;;;;;;4755398;30;20400;-82
2022/07/31 10:04:55;;;;;;;2.15;1.25;;;22.20;71.20;;;;;;4738495;30;20050;-82
2022/07/31 10:07:26;;;;;;;1.60;1.10;;;22.20;71.30;;;;;;4732608;30;20044;-79
2022/07/31 10:09:56;;;;;;;2.00;1.58;;;22.20;71.40;;;;;;4733220;30;20068;-82
2022/07/31 10:12:27;;;;;;;2.33;1.30;;;22.20;71.60;;;;;;4717019;30;20124;-82
2022/07/31 10:15:10;;;;;;;2.33;1.40;;;22.20;71.90;;;;;;4732643;30;20036;-84
2022/07/31 10:17:39;;;;;;;2.13;1.60;;;22.10;72.00;;;;;;4718178;30;20052;-82
2022/07/31 10:24:17;;;;;;;1.73;1.35;;;22.10;72.30;;;;;;4762388;29;20066;-87
2022/07/31 10:30:46;;;;;;;2.25;1.27;;;22.10;72.40;;;;;;4747712;30;20079;-88
2022/07/31 10:33:47;;;;;;;1.45;1.25;;;22.10;72.70;;;;;;4749474;30;20059;-87
2022/07/31 10:36:47;;;;;;;;;;;22.10;72.80;;;;;;4688214;30;20104;-90
2022/07/31 10:39:23;;;;;;;2.07;1.50;;;22.00;72.70;;;;;;4679809;30;19911;-86
2022/07/31 10:42:18;;;;;;;4.18;1.90;;;22.00;72.60;;;;;;4657130;30;20096;-86
2022/07/31 10:44:53;;;;;;;2.35;1.80;;;22.00;72.80;;;;;;4616067;31;20203;-82
2022/07/31 10:50:29;;;;;;;3.15;2.25;;;21.90;73.10;;;;;;4639561;30;20054;-84
2022/07/31 10:53:10;;;;;;;2.90;2.28;;;22.00;73.10;;;;;;4599642;31;20196;-83
2022/07/31 10:55:36;;;;;;;3.60;2.45;;;22.10;72.80;;;;;;4597555;31;20048;-84
2022/07/31 10:58:18;;;;;;;3.08;2.22;;;22.20;72.60;;;;;;4599081;31;20048;-83
2022/07/31 11:00:44;;;;;;;2.80;2.00;;;22.20;72.50;;;;;;4612954;31;20058;-82
2022/07/31 11:03:17;;;;;;;3.47;2.53;;;22.20;72.30;;;;;;4618538;31;20051;-83
2022/07/31 11:05:58;;;;;;;2.85;2.20;;;22.30;72.40;;;;;;4625769;30;20049;-82
2022/07/31 11:08:24;;;;;;;3.50;2.42;;;22.30;72.40;;;;;;4691174;30;20054;-83
2022/07/31 11:10:54;;;;;;;4.45;2.08;;;22.30;72.40;;;;;;4681828;30;20050;-82
2022/07/31 11:13:22;;;;;;;4.07;2.70;;;22.20;72.40;;;;;;4725418;30;20048;-82
2022/07/31 11:15:51;;;;;;;3.50;2.55;;;22.20;72.50;;;;;;4757820;30;20289;-81
2022/07/31 11:18:21;;;;;;;3.72;2.72;;;22.20;72.80;;;;;;4777892;30;20048;-84
2022/07/31 11:21:03;;;;;;;2.70;2.20;;;22.10;73.00;;;;;;4742868;30;20158;-83
2022/07/31 11:23:31;;;;;;;2.33;2.00;;;22.10;73.30;;;;;;4750105;30;20043;-82
2022/07/31 11:25:59;;;;;;;2.90;2.20;;;22.00;73.40;;;;;;4782091;30;20056;-82
2022/07/31 11:28:25;;;;;;;2.45;2.03;;;22.20;73.50;;;;;;4758478;30;20054;-83
2022/07/31 11:31:01;;;;;;;2.58;1.98;;;22.30;73.20;;;;;;4768542;30;20023;-83
2022/07/31 11:33:46;;;;;;;2.78;2.00;;;22.50;73.00;;;;;;4766741;30;20047;-82
2022/07/31 11:36:16;;;;;;;2.83;2.20;;;22.60;72.50;;;;;;4763020;29;20039;-84
2022/07/31 11:38:52;;;;;;;2.22;1.77;;;22.70;72.10;;;;;;4749021;29;20044;-83
2022/07/31 11:41:21;;;;;;;3.10;2.40;;;22.90;72.30;;;;;;4753397;30;20036;-81
2022/07/31 11:43:49;;;;;;;3.55;2.60;;;22.70;72.40;;;;;;4786566;30;20044;-84
2022/07/31 11:46:32;;;;;;;2.00;1.80;;;22.60;72.70;;;;;;4772583;30;20054;-85
2022/07/31 11:48:59;;;;;;;3.30;2.30;;;22.60;72.90;;;;;;4774496;30;20039;-85
2022/07/31 11:51:26;;;;;;;2.58;2.08;;;22.60;72.90;;;;;;4771653;29;20078;-84
2022/07/31 11:53:54;;;;;;;2.15;1.95;;;22.60;73.10;;;;;;4817798;29;20073;-85
2022/07/31 11:56:20;;;;;;;2.67;2.28;;;22.60;73.00;;;;;;4790761;29;20039;-85
2022/07/31 11:58:52;;;;;;;2.08;1.80;;;22.80;72.90;;;;;;4818625;29;20055;-85
2022/07/31 12:01:18;;;;;;;2.00;1.80;;;22.90;72.50;;;;;;4788124;29;20046;-85
2022/07/31 12:03:45;;;;;;;2.28;2.05;;;23.00;72.20;;;;;;4804096;29;20091;-85
2022/07/31 12:06:18;;;;;;;2.97;2.08;;;23.20;71.80;;;;;;4816062;29;20030;-85
2022/07/31 12:08:46;;;;;;;3.72;2.13;;;23.30;71.60;;;;;;4818776;29;20055;-83
2022/07/31 12:11:12;;;;;;;2.13;1.92;;;23.20;71.50;;;;;;4817844;29;20038;-85
2022/07/31 12:13:38;;;;;;;2.50;2.00;;;23.20;71.50;;;;;;4833789;29;20141;-84
2022/07/31 12:16:09;;;;;;;2.08;1.88;;;23.30;71.60;;;;;;4819695;29;20039;-84
2022/07/31 12:18:52;;;;;;;;;;;23.20;71.80;;;;;;4806517;29;20046;-84
2022/07/31 12:21:19;;;;;;;1.65;1.55;;;23.20;71.80;;;;;;4823228;29;19909;-85
2022/07/31 12:23:47;;;;;;;1.77;1.55;;;23.30;71.90;;;;;;4791628;29;20055;-83
2022/07/31 12:26:32;;;;;;;1.67;1.52;;;23.20;71.80;;;;;;4824208;29;20103;-84
2022/07/31 12:29:04;;;;;;;2.63;1.55;;;23.20;71.70;;;;;;4840475;29;20046;-83
2022/07/31 12:31:44;;;;;;;1.60;1.38;;;23.30;71.70;;;;;;4826704;29;20046;-83
2022/07/31 12:34:10;;;;;;;1.35;1.25;;;23.40;71.70;;;;;;4806501;29;20129;-84
2022/07/31 12:36:35;;;;;;;1.67;1.40;;;23.50;72.10;;;;;;4807460;29;20047;-84
2022/07/31 12:39:03;;;;;;;1.90;1.60;;;23.50;71.20;;;;;;4823715;29;20034;-82
2022/07/31 12:41:40;;;;;;;1.63;1.52;;;23.50;71.30;;;;;;4833981;29;20058;-82
2022/07/31 12:44:10;;;;;;;1.95;1.65;;;23.50;71.40;;;;;;4811258;29;20066;-82
2022/07/31 12:46:35;;;;;;;1.40;1.30;;;23.50;71.40;;;;;;4802822;29;20035;-82
2022/07/31 12:49:03;;;;;;;2.25;1.48;;;23.40;71.50;;;;;;4814662;29;20406;-82
2022/07/31 12:51:31;;;;;;;2.30;1.70;;;23.50;71.60;;;;;;4815010;29;20117;-82
2022/07/31 12:53:58;;;;;;;1.52;1.42;;;23.60;71.60;;;;;;4818305;29;20045;-83
2022/07/31 12:56:24;;;;;;;1.55;1.45;;;23.70;71.20;;;;;;4798195;29;20057;-82
2022/07/31 12:58:49;;;;;;;1.90;1.40;;;23.80;70.70;;;;;;4800460;29;20042;-83
2022/07/31 13:01:15;;;;;;;2.38;1.60;;;23.90;70.50;;;;;;4813080;29;20038;-82
2022/07/31 13:03:41;;;;;;;1.38;1.27;;;24.10;70.40;;;;;;4829878;29;20102;-81
2022/07/31 13:06:07;;;;;;;1.48;1.38;;;24.00;70.30;;;;;;4814635;29;20115;-82
2022/07/31 13:08:33;;;;;;;1.45;1.30;;;24.00;71.00;;;;;;4817160;29;20034;-82
2022/07/31 13:10:59;;;;;;;1.38;1.27;;;24.00;70.30;;;;;;4814653;29;20041;-82
2022/07/31 13:13:25;;;;;;;1.40;1.30;;;24.00;70.30;;;;;;4828850;29;20091;-82
2022/07/31 13:15:51;;;;;;;1.88;1.50;;;24.00;70.40;;;;;;4809366;29;20038;-83
2022/07/31 13:18:16;;;;;;;1.88;1.30;;;23.90;70.50;;;;;;4810718;29;20514;-82